Terminal Aerodrome Forecast
Issued by NWS Missoula, MT

Home | Current Version | Previous Version | Text Only | Print | Product List | Glossary On
Versions: 1 2 3 4 5 6 7 8 9 10 11 12 13 14 15 16 17 18 19 20 21 22 23 24 25 26
000
FTUS45 KMSO 242320
TAFBTM
TAF
KBTM 242320Z 2500/2524 33005KT P6SM VCSH SCT050 OVC080
     FM250200 VRB03KT P6SM OVC050
     FM251800 30012KT P6SM OVC080=

USA.gov is the U.S. government's official web portal to all federal, state and local government web resources and services.